Odem, TX (78370)

5:25 AM CDT on March 29, 2017 (GMT -0500)
MUP445 | | Change Station

Elev 98 ft 27.97 °N, 97.68 °W | Updated 16 hours ago

Mostly Cloudy
Mostly Cloudy
89.0 °F
Feels Like 89.0 °F
N
-
Wind Variable Wind from North

Today
High -- | Low -- °F
--% Chance of Precip.
Yesterday
High -- | Low -- °F
Precip. -- in
Pressure 29.69 in
Visibility 10.0 miles
Clouds Few 900 ft
Mostly Cloudy 1400 ft
Overcast 1900 ft
Dew Point Not available.
Humidity Not available.
Rainfall 0.00 in
Snow Depth Not available.
7:23 AM 7:46 PM
New Moon, 2% visible
METAR KCRP 290951Z 18009KT 10SM FEW009 BKN014 OVC019 24/22 A2969 RMK AO2 PK WND 16031/0915 SLP053 T02390222 $
Pressure 29.69 in
Visibility 10.0 miles
Clouds Few 900 ft
Mostly Cloudy 1400 ft
Overcast 1900 ft
Dew Point Not available.
Humidity Not available.
Rainfall 0.00 in
Snow Depth Not available.
7:23 AM 7:46 PM
New Moon, 2% visible
METAR KCRP 290951Z 18009KT 10SM FEW009 BKN014 OVC019 24/22 A2969 RMK AO2 PK WND 16031/0915 SLP053 T02390222 $

Get Severe Weather Alerts

Thanks for signing up!

Be on the lookout for a verification email in your inbox.

You'll start receiving the daily forecast at 8 AM.

×

10-Day Weather Forecast

Almanac

Astronomy

Mar. 29, 2017 Rise Set
Actual Time
Civil Twilight
Nautical Twilight
Astronomical Twilight
Moon
Length of Visible Light
Length of Day
Tomorrow will be .
, % of the Moon is Illuminated

Today's Extremes

State Highs State Lows

Community

WunderPhotos

Upload Photos

1,962,540 photos uploaded!

WunderBlog® & News

Nearby

Air Quality

  Air Quality AQ Index Pollutant
Not available.

Snow Depth

Station Depth Elevation

Earthquake Activity

City Distance Mag. Time & Date
Minimum magnitude displayed is 2.5.

Earthquake Activity

City Distance Mag. Time & Date
Minimum magnitude displayed is 2.5.

Coastal Water Temperatures

Place Temperature

Stations

Nearby Weather Stations

Station Location Temp. Windchill Dew Point Humidity Wind Precip. Elev Updated Type
                   

Watches & Warnings

There are currently no watches in effect.